sensor_id;sensor_type;location;lat;lon;timestamp;P1;P2;P0
21358;PMS7003;13506;50.852;20.632;2023-07-13T00:00:27;29.00;26.25;19.00
21358;PMS7003;13506;50.852;20.632;2023-07-13T00:03:17;29.00;26.75;16.75
21358;PMS7003;13506;50.852;20.632;2023-07-13T00:05:45;27.25;26.25;17.00
21358;PMS7003;13506;50.852;20.632;2023-07-13T00:08:14;24.25;24.00;15.75
21358;PMS7003;13506;50.852;20.632;2023-07-13T00:10:42;28.75;25.00;14.25
21358;PMS7003;13506;50.852;20.632;2023-07-13T00:13:11;24.75;22.00;15.00
21358;PMS7003;13506;50.852;20.632;2023-07-13T00:15:39;23.50;21.25;14.00
21358;PMS7003;13506;50.852;20.632;2023-07-13T00:18:07;25.75;22.25;14.00
21358;PMS7003;13506;50.852;20.632;2023-07-13T00:20:37;26.00;25.00;15.50
21358;PMS7003;13506;50.852;20.632;2023-07-13T00:23:06;29.50;25.25;15.00
21358;PMS7003;13506;50.852;20.632;2023-07-13T00:25:35;25.50;23.00;14.75
21358;PMS7003;13506;50.852;20.632;2023-07-13T00:28:03;25.50;25.50;16.25
21358;PMS7003;13506;50.852;20.632;2023-07-13T00:30:31;26.25;24.75;15.50
21358;PMS7003;13506;50.852;20.632;2023-07-13T00:32:59;28.75;25.75;15.75
21358;PMS7003;13506;50.852;20.632;2023-07-13T00:35:29;30.75;28.00;18.75
21358;PMS7003;13506;50.852;20.632;2023-07-13T00:38:00;25.75;24.00;16.75
21358;PMS7003;13506;50.852;20.632;2023-07-13T00:40:28;28.50;24.75;15.25
21358;PMS7003;13506;50.852;20.632;2023-07-13T00:42:57;27.25;22.25;14.50
21358;PMS7003;13506;50.852;20.632;2023-07-13T00:48:31;26.50;23.75;15.25
21358;PMS7003;13506;50.852;20.632;2023-07-13T00:51:02;30.75;25.50;16.75
21358;PMS7003;13506;50.852;20.632;2023-07-13T00:53:31;26.50;24.25;15.00
21358;PMS7003;13506;50.852;20.632;2023-07-13T00:56:01;29.25;26.25;18.00
21358;PMS7003;13506;50.852;20.632;2023-07-13T00:58:30;27.75;25.25;15.25
21358;PMS7003;13506;50.852;20.632;2023-07-13T01:00:58;26.00;23.00;15.00
21358;PMS7003;13506;50.852;20.632;2023-07-13T01:03:26;31.75;28.25;17.50
21358;PMS7003;13506;50.852;20.632;2023-07-13T01:05:54;29.25;24.00;16.25
21358;PMS7003;13506;50.852;20.632;2023-07-13T01:08:22;25.50;24.75;17.00
21358;PMS7003;13506;50.852;20.632;2023-07-13T01:10:53;30.25;25.75;16.50
21358;PMS7003;13506;50.852;20.632;2023-07-13T01:13:23;28.75;24.00;15.50
21358;PMS7003;13506;50.852;20.632;2023-07-13T01:15:52;29.75;26.00;17.25
21358;PMS7003;13506;50.852;20.632;2023-07-13T01:18:33;29.75;26.00;16.75
21358;PMS7003;13506;50.852;20.632;2023-07-13T01:21:03;28.75;24.75;17.00
21358;PMS7003;13506;50.852;20.632;2023-07-13T01:23:32;33.25;27.00;16.00
21358;PMS7003;13506;50.852;20.632;2023-07-13T01:26:00;28.00;24.25;15.75
21358;PMS7003;13506;50.852;20.632;2023-07-13T01:28:28;28.25;26.25;17.25
21358;PMS7003;13506;50.852;20.632;2023-07-13T01:30:58;27.75;23.75;14.50
21358;PMS7003;13506;50.852;20.632;2023-07-13T01:33:26;26.50;24.00;15.25
21358;PMS7003;13506;50.852;20.632;2023-07-13T01:35:56;30.75;25.25;16.25
21358;PMS7003;13506;50.852;20.632;2023-07-13T01:38:25;27.00;23.00;15.25
21358;PMS7003;13506;50.852;20.632;2023-07-13T01:40:54;27.00;25.00;14.50
21358;PMS7003;13506;50.852;20.632;2023-07-13T01:43:25;28.25;26.75;16.75
21358;PMS7003;13506;50.852;20.632;2023-07-13T01:45:53;32.25;27.00;17.50
21358;PMS7003;13506;50.852;20.632;2023-07-13T01:48:20;34.50;30.25;19.00
21358;PMS7003;13506;50.852;20.632;2023-07-13T01:50:48;30.00;28.25;19.50
21358;PMS7003;13506;50.852;20.632;2023-07-13T01:53:16;30.75;29.75;17.75
21358;PMS7003;13506;50.852;20.632;2023-07-13T01:55:46;31.50;28.00;18.75
21358;PMS7003;13506;50.852;20.632;2023-07-13T01:58:14;30.25;27.00;18.00
21358;PMS7003;13506;50.852;20.632;2023-07-13T02:00:42;30.50;27.00;18.00
21358;PMS7003;13506;50.852;20.632;2023-07-13T02:03:10;32.00;27.75;17.00
21358;PMS7003;13506;50.852;20.632;2023-07-13T02:05:43;27.25;24.50;16.00
21358;PMS7003;13506;50.852;20.632;2023-07-13T02:08:11;32.25;29.75;19.50
21358;PMS7003;13506;50.852;20.632;2023-07-13T02:10:39;28.25;26.25;17.50
21358;PMS7003;13506;50.852;20.632;2023-07-13T02:13:08;29.50;27.50;17.00
21358;PMS7003;13506;50.852;20.632;2023-07-13T02:15:38;29.75;28.25;19.00
21358;PMS7003;13506;50.852;20.632;2023-07-13T02:18:06;30.25;26.75;17.50
21358;PMS7003;13506;50.852;20.632;2023-07-13T02:20:35;30.75;29.50;18.25
21358;PMS7003;13506;50.852;20.632;2023-07-13T02:23:03;28.00;24.25;14.25
21358;PMS7003;13506;50.852;20.632;2023-07-13T02:25:31;31.50;27.75;16.25
21358;PMS7003;13506;50.852;20.632;2023-07-13T02:27:59;30.00;26.25;15.75
21358;PMS7003;13506;50.852;20.632;2023-07-13T02:30:30;29.75;26.25;16.25
21358;PMS7003;13506;50.852;20.632;2023-07-13T02:32:58;30.50;29.25;18.75
21358;PMS7003;13506;50.852;20.632;2023-07-13T02:35:26;33.25;28.00;17.50
21358;PMS7003;13506;50.852;20.632;2023-07-13T02:37:53;29.75;25.50;17.00
21358;PMS7003;13506;50.852;20.632;2023-07-13T02:40:23;27.50;26.00;16.25
21358;PMS7003;13506;50.852;20.632;2023-07-13T02:42:51;29.00;26.50;17.25
21358;PMS7003;13506;50.852;20.632;2023-07-13T02:45:20;30.00;28.50;17.25
21358;PMS7003;13506;50.852;20.632;2023-07-13T02:47:49;28.75;27.50;16.25
21358;PMS7003;13506;50.852;20.632;2023-07-13T02:50:17;29.00;24.75;15.75
21358;PMS7003;13506;50.852;20.632;2023-07-13T02:52:45;29.50;26.75;18.25
21358;PMS7003;13506;50.852;20.632;2023-07-13T02:55:13;30.50;29.50;18.00
21358;PMS7003;13506;50.852;20.632;2023-07-13T02:57:41;28.00;28.00;17.75
21358;PMS7003;13506;50.852;20.632;2023-07-13T03:00:09;26.50;23.50;14.25
21358;PMS7003;13506;50.852;20.632;2023-07-13T03:02:38;33.00;27.25;17.25
21358;PMS7003;13506;50.852;20.632;2023-07-13T03:05:07;30.50;29.00;20.00
21358;PMS7003;13506;50.852;20.632;2023-07-13T03:07:38;32.25;26.50;18.00
21358;PMS7003;13506;50.852;20.632;2023-07-13T03:10:08;27.25;24.75;16.00
21358;PMS7003;13506;50.852;20.632;2023-07-13T03:12:43;31.00;26.50;17.75
21358;PMS7003;13506;50.852;20.632;2023-07-13T03:15:19;30.75;26.25;16.75
21358;PMS7003;13506;50.852;20.632;2023-07-13T03:17:49;29.75;27.25;17.50
21358;PMS7003;13506;50.852;20.632;2023-07-13T03:20:18;27.25;27.25;17.50
21358;PMS7003;13506;50.852;20.632;2023-07-13T03:22:46;34.00;29.25;18.00
21358;PMS7003;13506;50.852;20.632;2023-07-13T03:25:16;28.75;27.50;18.00
21358;PMS7003;13506;50.852;20.632;2023-07-13T03:27:44;34.50;29.00;18.50
21358;PMS7003;13506;50.852;20.632;2023-07-13T03:30:12;31.50;27.25;17.50
21358;PMS7003;13506;50.852;20.632;2023-07-13T03:32:42;32.75;29.75;20.50
21358;PMS7003;13506;50.852;20.632;2023-07-13T03:35:10;33.50;29.50;19.75
21358;PMS7003;13506;50.852;20.632;2023-07-13T03:37:39;30.25;27.75;18.00
21358;PMS7003;13506;50.852;20.632;2023-07-13T03:40:12;34.00;29.00;16.50
21358;PMS7003;13506;50.852;20.632;2023-07-13T03:42:42;29.25;27.75;16.00
21358;PMS7003;13506;50.852;20.632;2023-07-13T03:45:13;30.25;28.50;17.00
21358;PMS7003;13506;50.852;20.632;2023-07-13T03:47:41;32.75;26.50;17.75
21358;PMS7003;13506;50.852;20.632;2023-07-13T03:50:09;32.25;29.25;19.50
21358;PMS7003;13506;50.852;20.632;2023-07-13T03:52:37;31.25;29.50;20.00
21358;PMS7003;13506;50.852;20.632;2023-07-13T03:55:07;35.25;29.00;18.25
21358;PMS7003;13506;50.852;20.632;2023-07-13T03:57:35;33.75;28.50;17.00
21358;PMS7003;13506;50.852;20.632;2023-07-13T04:00:04;30.75;27.00;17.00
21358;PMS7003;13506;50.852;20.632;2023-07-13T04:02:41;27.50;25.00;17.00
21358;PMS7003;13506;50.852;20.632;2023-07-13T04:05:09;29.25;27.25;17.25
21358;PMS7003;13506;50.852;20.632;2023-07-13T04:07:37;31.75;28.75;18.50
21358;PMS7003;13506;50.852;20.632;2023-07-13T04:10:07;32.75;28.75;18.25
21358;PMS7003;13506;50.852;20.632;2023-07-13T04:12:35;28.25;26.25;18.00
21358;PMS7003;13506;50.852;20.632;2023-07-13T04:15:04;31.00;26.50;18.75
21358;PMS7003;13506;50.852;20.632;2023-07-13T04:17:33;28.00;26.50;18.00
21358;PMS7003;13506;50.852;20.632;2023-07-13T04:20:01;31.50;26.50;17.50
21358;PMS7003;13506;50.852;20.632;2023-07-13T04:22:29;38.50;32.75;18.00
21358;PMS7003;13506;50.852;20.632;2023-07-13T04:24:58;37.00;26.75;19.00
21358;PMS7003;13506;50.852;20.632;2023-07-13T04:27:26;36.25;31.00;18.50
21358;PMS7003;13506;50.852;20.632;2023-07-13T04:29:55;32.75;30.25;19.25
21358;PMS7003;13506;50.852;20.632;2023-07-13T04:32:23;33.75;30.25;19.00
21358;PMS7003;13506;50.852;20.632;2023-07-13T04:34:51;29.75;29.50;19.25
21358;PMS7003;13506;50.852;20.632;2023-07-13T04:37:21;33.50;29.00;18.25
21358;PMS7003;13506;50.852;20.632;2023-07-13T04:39:49;33.75;29.00;18.25
21358;PMS7003;13506;50.852;20.632;2023-07-13T04:42:18;33.50;29.00;18.50
21358;PMS7003;13506;50.852;20.632;2023-07-13T04:44:47;32.00;27.00;17.75
21358;PMS7003;13506;50.852;20.632;2023-07-13T04:47:15;30.00;28.75;19.75
21358;PMS7003;13506;50.852;20.632;2023-07-13T04:49:44;31.75;29.25;19.25
21358;PMS7003;13506;50.852;20.632;2023-07-13T04:52:12;32.00;28.50;16.25
21358;PMS7003;13506;50.852;20.632;2023-07-13T04:54:40;33.00;28.75;18.50
21358;PMS7003;13506;50.852;20.632;2023-07-13T04:57:08;24.50;24.25;15.25
21358;PMS7003;13506;50.852;20.632;2023-07-13T04:59:37;27.00;22.25;13.50
21358;PMS7003;13506;50.852;20.632;2023-07-13T05:02:05;31.25;25.75;16.50
21358;PMS7003;13506;50.852;20.632;2023-07-13T05:04:34;25.75;24.50;16.25
21358;PMS7003;13506;50.852;20.632;2023-07-13T05:07:02;25.50;25.00;17.00
21358;PMS7003;13506;50.852;20.632;2023-07-13T05:09:30;24.75;23.75;15.50
21358;PMS7003;13506;50.852;20.632;2023-07-13T05:11:58;25.75;22.00;15.75
21358;PMS7003;13506;50.852;20.632;2023-07-13T05:14:26;29.25;25.75;15.00
21358;PMS7003;13506;50.852;20.632;2023-07-13T05:16:55;27.25;24.75;16.00
21358;PMS7003;13506;50.852;20.632;2023-07-13T05:19:23;27.75;27.25;16.75
21358;PMS7003;13506;50.852;20.632;2023-07-13T05:21:51;26.75;24.75;17.00
21358;PMS7003;13506;50.852;20.632;2023-07-13T05:24:20;29.25;25.75;16.75
21358;PMS7003;13506;50.852;20.632;2023-07-13T05:26:47;27.25;23.75;16.00
21358;PMS7003;13506;50.852;20.632;2023-07-13T05:29:16;24.75;22.00;14.25
21358;PMS7003;13506;50.852;20.632;2023-07-13T05:31:43;27.75;25.50;15.75
21358;PMS7003;13506;50.852;20.632;2023-07-13T05:34:13;26.75;24.75;16.25
21358;PMS7003;13506;50.852;20.632;2023-07-13T05:36:41;25.75;23.50;14.00
21358;PMS7003;13506;50.852;20.632;2023-07-13T05:39:09;24.75;22.25;14.50
21358;PMS7003;13506;50.852;20.632;2023-07-13T05:41:37;23.50;20.50;13.00
21358;PMS7003;13506;50.852;20.632;2023-07-13T05:44:05;24.50;20.50;13.25
21358;PMS7003;13506;50.852;20.632;2023-07-13T05:46:33;27.75;25.00;17.00
21358;PMS7003;13506;50.852;20.632;2023-07-13T05:49:01;23.75;22.75;14.75
21358;PMS7003;13506;50.852;20.632;2023-07-13T05:51:31;23.25;23.00;15.00
21358;PMS7003;13506;50.852;20.632;2023-07-13T05:53:59;24.75;21.50;12.75
21358;PMS7003;13506;50.852;20.632;2023-07-13T05:56:26;21.00;19.00;12.25
21358;PMS7003;13506;50.852;20.632;2023-07-13T05:58:55;21.00;20.50;12.50
21358;PMS7003;13506;50.852;20.632;2023-07-13T06:01:23;25.00;23.75;13.50
21358;PMS7003;13506;50.852;20.632;2023-07-13T06:03:51;20.25;18.50;12.50
21358;PMS7003;13506;50.852;20.632;2023-07-13T06:06:19;22.75;15.50;10.25
21358;PMS7003;13506;50.852;20.632;2023-07-13T06:08:48;18.00;14.50;9.50
21358;PMS7003;13506;50.852;20.632;2023-07-13T06:11:16;15.60;14.20;8.80
21358;PMS7003;13506;50.852;20.632;2023-07-13T06:13:45;19.25;16.00;9.50
21358;PMS7003;13506;50.852;20.632;2023-07-13T06:16:13;14.60;10.00;7.00
21358;PMS7003;13506;50.852;20.632;2023-07-13T06:18:42;14.75;14.25;8.75
21358;PMS7003;13506;50.852;20.632;2023-07-13T06:21:12;18.20;14.80;10.20
21358;PMS7003;13506;50.852;20.632;2023-07-13T06:23:42;18.00;17.00;12.00
21358;PMS7003;13506;50.852;20.632;2023-07-13T06:26:12;18.50;16.50;10.50
21358;PMS7003;13506;50.852;20.632;2023-07-13T06:28:40;14.60;13.00;8.00
21358;PMS7003;13506;50.852;20.632;2023-07-13T06:31:08;15.00;13.75;9.00
21358;PMS7003;13506;50.852;20.632;2023-07-13T06:33:37;18.00;14.40;9.00
21358;PMS7003;13506;50.852;20.632;2023-07-13T06:36:06;15.80;14.00;8.00
21358;PMS7003;13506;50.852;20.632;2023-07-13T06:38:35;11.60;10.40;6.00
21358;PMS7003;13506;50.852;20.632;2023-07-13T06:41:04;10.80;10.80;6.80
21358;PMS7003;13506;50.852;20.632;2023-07-13T06:43:34;10.60;8.80;5.00
21358;PMS7003;13506;50.852;20.632;2023-07-13T06:46:02;7.20;7.20;3.80
21358;PMS7003;13506;50.852;20.632;2023-07-13T06:48:30;8.00;6.60;3.80
21358;PMS7003;13506;50.852;20.632;2023-07-13T06:50:58;7.00;6.80;4.00
21358;PMS7003;13506;50.852;20.632;2023-07-13T06:53:26;7.80;7.20;3.00
21358;PMS7003;13506;50.852;20.632;2023-07-13T06:55:54;9.20;8.00;4.80
21358;PMS7003;13506;50.852;20.632;2023-07-13T06:58:22;6.60;6.20;4.00
21358;PMS7003;13506;50.852;20.632;2023-07-13T07:00:52;4.80;4.40;2.20
21358;PMS7003;13506;50.852;20.632;2023-07-13T07:03:21;9.80;5.60;2.00
21358;PMS7003;13506;50.852;20.632;2023-07-13T07:05:49;9.60;9.00;4.80
21358;PMS7003;13506;50.852;20.632;2023-07-13T07:08:17;8.00;7.80;4.60
21358;PMS7003;13506;50.852;20.632;2023-07-13T07:10:45;8.20;6.40;3.00
21358;PMS7003;13506;50.852;20.632;2023-07-13T07:13:17;7.00;7.00;4.00
21358;PMS7003;13506;50.852;20.632;2023-07-13T07:15:44;6.00;6.00;3.00
21358;PMS7003;13506;50.852;20.632;2023-07-13T07:18:14;8.80;7.20;3.40
21358;PMS7003;13506;50.852;20.632;2023-07-13T07:20:42;7.40;7.00;4.00
21358;PMS7003;13506;50.852;20.632;2023-07-13T07:23:10;11.20;9.60;4.00
21358;PMS7003;13506;50.852;20.632;2023-07-13T07:25:38;9.00;8.00;3.60
21358;PMS7003;13506;50.852;20.632;2023-07-13T07:28:07;7.80;7.80;4.60
21358;PMS7003;13506;50.852;20.632;2023-07-13T07:30:36;10.60;9.60;5.00
21358;PMS7003;13506;50.852;20.632;2023-07-13T07:33:04;10.20;10.20;6.00
21358;PMS7003;13506;50.852;20.632;2023-07-13T07:35:33;10.00;9.20;4.80
21358;PMS7003;13506;50.852;20.632;2023-07-13T07:38:01;9.80;8.60;4.00
21358;PMS7003;13506;50.852;20.632;2023-07-13T07:40:29;10.20;9.00;4.80
21358;PMS7003;13506;50.852;20.632;2023-07-13T07:42:58;13.60;9.60;5.00
21358;PMS7003;13506;50.852;20.632;2023-07-13T07:45:26;10.00;8.00;5.20
21358;PMS7003;13506;50.852;20.632;2023-07-13T07:47:54;8.80;8.80;5.00
21358;PMS7003;13506;50.852;20.632;2023-07-13T07:50:24;9.60;6.00;3.00
21358;PMS7003;13506;50.852;20.632;2023-07-13T07:52:54;6.40;5.80;3.00
21358;PMS7003;13506;50.852;20.632;2023-07-13T07:55:22;11.20;11.20;6.80
21358;PMS7003;13506;50.852;20.632;2023-07-13T07:57:52;7.00;7.00;3.80
21358;PMS7003;13506;50.852;20.632;2023-07-13T08:00:20;5.80;5.80;3.00
21358;PMS7003;13506;50.852;20.632;2023-07-13T08:02:48;6.60;6.60;3.20
21358;PMS7003;13506;50.852;20.632;2023-07-13T08:05:17;6.60;5.00;2.80
21358;PMS7003;13506;50.852;20.632;2023-07-13T08:07:45;7.00;7.00;3.20
21358;PMS7003;13506;50.852;20.632;2023-07-13T08:10:14;7.75;7.75;4.00
21358;PMS7003;13506;50.852;20.632;2023-07-13T08:12:42;6.75;6.50;3.00
21358;PMS7003;13506;50.852;20.632;2023-07-13T08:15:11;6.25;6.25;3.00
21358;PMS7003;13506;50.852;20.632;2023-07-13T08:17:42;6.80;5.60;2.80
21358;PMS7003;13506;50.852;20.632;2023-07-13T08:20:10;4.80;4.80;2.00
21358;PMS7003;13506;50.852;20.632;2023-07-13T08:22:37;8.00;7.00;2.00
21358;PMS7003;13506;50.852;20.632;2023-07-13T08:25:06;7.25;5.50;2.25
21358;PMS7003;13506;50.852;20.632;2023-07-13T08:27:35;7.40;6.00;3.00
21358;PMS7003;13506;50.852;20.632;2023-07-13T08:30:04;6.20;6.20;2.80
21358;PMS7003;13506;50.852;20.632;2023-07-13T08:32:33;5.20;5.20;3.00
21358;PMS7003;13506;50.852;20.632;2023-07-13T08:35:03;5.25;4.75;2.00
21358;PMS7003;13506;50.852;20.632;2023-07-13T08:37:31;5.40;5.40;3.00
21358;PMS7003;13506;50.852;20.632;2023-07-13T08:40:00;4.80;4.80;1.80
21358;PMS7003;13506;50.852;20.632;2023-07-13T08:42:32;4.80;4.80;2.00
21358;PMS7003;13506;50.852;20.632;2023-07-13T08:45:08;5.00;5.00;2.20
21358;PMS7003;13506;50.852;20.632;2023-07-13T08:47:44;5.75;5.00;2.00
21358;PMS7003;13506;50.852;20.632;2023-07-13T08:50:17;6.80;6.60;3.00
21358;PMS7003;13506;50.852;20.632;2023-07-13T08:52:48;7.20;6.20;3.00
21358;PMS7003;13506;50.852;20.632;2023-07-13T08:55:16;6.60;5.00;2.20
21358;PMS7003;13506;50.852;20.632;2023-07-13T08:57:50;5.40;5.40;3.00
21358;PMS7003;13506;50.852;20.632;2023-07-13T09:00:24;7.20;5.80;2.00
21358;PMS7003;13506;50.852;20.632;2023-07-13T09:03:03;8.60;8.00;5.00
21358;PMS7003;13506;50.852;20.632;2023-07-13T09:05:40;7.00;6.80;3.00
21358;PMS7003;13506;50.852;20.632;2023-07-13T09:08:14;6.75;6.75;3.75
21358;PMS7003;13506;50.852;20.632;2023-07-13T09:11:06;9.00;7.00;4.00
21358;PMS7003;13506;50.852;20.632;2023-07-13T09:16:52;5.00;5.00;3.00
21358;PMS7003;13506;50.852;20.632;2023-07-13T09:19:23;8.50;6.75;3.00
21358;PMS7003;13506;50.852;20.632;2023-07-13T09:21:55;7.00;7.00;4.00
21358;PMS7003;13506;50.852;20.632;2023-07-13T09:24:29;7.25;7.25;3.75
21358;PMS7003;13506;50.852;20.632;2023-07-13T09:27:03;9.00;6.00;3.00
21358;PMS7003;13506;50.852;20.632;2023-07-13T09:29:45;6.00;6.00;2.00
21358;PMS7003;13506;50.852;20.632;2023-07-13T09:32:23;6.00;6.00;4.00
21358;PMS7003;13506;50.852;20.632;2023-07-13T09:34:54;8.25;7.25;4.00
21358;PMS7003;13506;50.852;20.632;2023-07-13T09:37:23;9.00;9.00;4.00
21358;PMS7003;13506;50.852;20.632;2023-07-13T09:39:57;6.50;6.50;4.00
21358;PMS7003;13506;50.852;20.632;2023-07-13T09:42:30;10.00;8.00;4.25
21358;PMS7003;13506;50.852;20.632;2023-07-13T09:45:00;6.00;6.00;3.00
21358;PMS7003;13506;50.852;20.632;2023-07-13T09:47:30;9.00;7.25;4.00
21358;PMS7003;13506;50.852;20.632;2023-07-13T09:50:00;7.00;7.00;4.00
21358;PMS7003;13506;50.852;20.632;2023-07-13T09:52:38;8.00;7.75;4.25
21358;PMS7003;13506;50.852;20.632;2023-07-13T09:55:22;9.50;8.50;5.00
21358;PMS7003;13506;50.852;20.632;2023-07-13T09:57:52;9.75;8.75;5.25
21358;PMS7003;13506;50.852;20.632;2023-07-13T10:00:22;9.00;9.00;6.00
21358;PMS7003;13506;50.852;20.632;2023-07-13T10:03:03;9.25;8.75;4.75
21358;PMS7003;13506;50.852;20.632;2023-07-13T10:05:41;10.75;8.75;5.00
21358;PMS7003;13506;50.852;20.632;2023-07-13T10:08:17;10.00;9.00;6.00
21358;PMS7003;13506;50.852;20.632;2023-07-13T10:10:51;10.75;10.00;6.00
21358;PMS7003;13506;50.852;20.632;2023-07-13T10:13:28;15.00;12.00;7.00
21358;PMS7003;13506;50.852;20.632;2023-07-13T10:16:01;13.25;12.00;7.00
21358;PMS7003;13506;50.852;20.632;2023-07-13T10:18:33;11.75;11.75;6.75
21358;PMS7003;13506;50.852;20.632;2023-07-13T10:21:10;12.75;11.50;8.75
21358;PMS7003;13506;50.852;20.632;2023-07-13T10:23:40;15.25;14.00;9.00
21358;PMS7003;13506;50.852;20.632;2023-07-13T10:26:12;14.50;13.00;8.25
21358;PMS7003;13506;50.852;20.632;2023-07-13T10:28:46;16.25;13.75;8.00
21358;PMS7003;13506;50.852;20.632;2023-07-13T10:31:22;16.00;15.25;9.00
21358;PMS7003;13506;50.852;20.632;2023-07-13T10:33:50;16.00;14.75;8.75
21358;PMS7003;13506;50.852;20.632;2023-07-13T10:36:21;15.00;13.75;8.00
21358;PMS7003;13506;50.852;20.632;2023-07-13T10:38:57;14.25;14.25;9.00
21358;PMS7003;13506;50.852;20.632;2023-07-13T10:41:29;17.75;14.25;8.50
21358;PMS7003;13506;50.852;20.632;2023-07-13T10:44:00;12.50;11.50;7.00
21358;PMS7003;13506;50.852;20.632;2023-07-13T10:46:32;12.00;11.50;6.75
21358;PMS7003;13506;50.852;20.632;2023-07-13T10:49:01;11.50;10.75;6.00
21358;PMS7003;13506;50.852;20.632;2023-07-13T10:51:32;16.25;13.75;7.75
21358;PMS7003;13506;50.852;20.632;2023-07-13T10:54:12;15.75;12.00;7.00
21358;PMS7003;13506;50.852;20.632;2023-07-13T10:56:49;15.50;12.75;8.00
21358;PMS7003;13506;50.852;20.632;2023-07-13T10:59:35;13.00;12.00;7.00
21358;PMS7003;13506;50.852;20.632;2023-07-13T11:02:11;13.25;13.25;7.00
21358;PMS7003;13506;50.852;20.632;2023-07-13T11:04:48;11.00;11.00;7.25
21358;PMS7003;13506;50.852;20.632;2023-07-13T11:07:20;10.00;10.00;7.00
21358;PMS7003;13506;50.852;20.632;2023-07-13T11:09:50;13.00;10.00;6.75
21358;PMS7003;13506;50.852;20.632;2023-07-13T11:15:29;13.00;12.50;7.00
21358;PMS7003;13506;50.852;20.632;2023-07-13T11:18:19;13.00;13.00;7.75
21358;PMS7003;13506;50.852;20.632;2023-07-13T11:20:49;13.00;12.00;7.00
21358;PMS7003;13506;50.852;20.632;2023-07-13T11:23:19;10.00;10.00;6.25
21358;PMS7003;13506;50.852;20.632;2023-07-13T11:25:56;14.00;12.50;8.75
21358;PMS7003;13506;50.852;20.632;2023-07-13T11:28:25;18.00;16.00;10.00
21358;PMS7003;13506;50.852;20.632;2023-07-13T11:31:02;17.50;15.00;9.75
21358;PMS7003;13506;50.852;20.632;2023-07-13T11:33:52;16.25;15.00;9.00
21358;PMS7003;13506;50.852;20.632;2023-07-13T11:36:24;17.25;15.75;11.00
21358;PMS7003;13506;50.852;20.632;2023-07-13T11:38:58;17.75;17.50;10.75
21358;PMS7003;13506;50.852;20.632;2023-07-13T11:41:30;13.75;12.50;9.25
21358;PMS7003;13506;50.852;20.632;2023-07-13T11:44:08;18.00;17.00;11.00
21358;PMS7003;13506;50.852;20.632;2023-07-13T11:46:44;20.00;17.50;11.50
21358;PMS7003;13506;50.852;20.632;2023-07-13T11:49:16;15.50;15.25;9.00
21358;PMS7003;13506;50.852;20.632;2023-07-13T11:51:45;16.25;15.00;10.00
21358;PMS7003;13506;50.852;20.632;2023-07-13T11:54:26;16.00;14.00;8.50
21358;PMS7003;13506;50.852;20.632;2023-07-13T11:56:56;14.75;14.75;9.00
21358;PMS7003;13506;50.852;20.632;2023-07-13T11:59:27;17.25;13.25;9.25
21358;PMS7003;13506;50.852;20.632;2023-07-13T12:01:57;12.50;12.50;9.00
21358;PMS7003;13506;50.852;20.632;2023-07-13T12:04:27;16.00;15.25;9.00
21358;PMS7003;13506;50.852;20.632;2023-07-13T12:07:03;15.00;13.75;9.00
21358;PMS7003;13506;50.852;20.632;2023-07-13T12:09:34;14.50;13.25;8.00
21358;PMS7003;13506;50.852;20.632;2023-07-13T12:12:03;12.00;12.00;7.25
21358;PMS7003;13506;50.852;20.632;2023-07-13T12:14:36;14.00;13.00;8.25
21358;PMS7003;13506;50.852;20.632;2023-07-13T12:17:07;12.00;11.00;7.50
21358;PMS7003;13506;50.852;20.632;2023-07-13T12:19:41;20.50;17.50;11.00
21358;PMS7003;13506;50.852;20.632;2023-07-13T12:22:09;18.00;16.25;10.00
21358;PMS7003;13506;50.852;20.632;2023-07-13T12:24:41;16.25;16.00;10.00
21358;PMS7003;13506;50.852;20.632;2023-07-13T12:27:15;16.50;16.00;10.00
21358;PMS7003;13506;50.852;20.632;2023-07-13T12:29:51;17.25;15.00;9.75
21358;PMS7003;13506;50.852;20.632;2023-07-13T12:32:24;14.25;12.50;8.00
21358;PMS7003;13506;50.852;20.632;2023-07-13T12:34:55;18.00;17.00;10.00
21358;PMS7003;13506;50.852;20.632;2023-07-13T12:37:24;9.60;9.60;6.20
21358;PMS7003;13506;50.852;20.632;2023-07-13T12:39:53;8.00;7.80;4.60
21358;PMS7003;13506;50.852;20.632;2023-07-13T12:42:22;7.60;7.20;4.00
21358;PMS7003;13506;50.852;20.632;2023-07-13T12:44:53;6.60;6.40;3.40
21358;PMS7003;13506;50.852;20.632;2023-07-13T12:47:23;7.40;5.60;2.80
21358;PMS7003;13506;50.852;20.632;2023-07-13T12:49:53;6.20;6.20;3.40
21358;PMS7003;13506;50.852;20.632;2023-07-13T12:52:28;3.20;3.20;1.60
21358;PMS7003;13506;50.852;20.632;2023-07-13T12:55:04;6.00;6.00;2.80
21358;PMS7003;13506;50.852;20.632;2023-07-13T12:57:39;6.60;6.60;2.80
21358;PMS7003;13506;50.852;20.632;2023-07-13T13:00:19;4.00;4.00;2.00
21358;PMS7003;13506;50.852;20.632;2023-07-13T13:02:52;5.60;5.60;2.00
21358;PMS7003;13506;50.852;20.632;2023-07-13T13:05:24;4.80;4.80;2.00
21358;PMS7003;13506;50.852;20.632;2023-07-13T13:07:53;5.80;5.80;2.40
21358;PMS7003;13506;50.852;20.632;2023-07-13T13:10:21;5.40;5.40;3.40
21358;PMS7003;13506;50.852;20.632;2023-07-13T13:12:50;6.80;6.00;3.80
21358;PMS7003;13506;50.852;20.632;2023-07-13T13:15:18;6.20;6.20;3.00
21358;PMS7003;13506;50.852;20.632;2023-07-13T13:17:48;6.00;6.00;3.00
21358;PMS7003;13506;50.852;20.632;2023-07-13T13:20:17;5.60;5.20;1.80
21358;PMS7003;13506;50.852;20.632;2023-07-13T13:22:48;6.80;5.60;2.80
21358;PMS7003;13506;50.852;20.632;2023-07-13T13:25:18;6.00;5.80;3.00
21358;PMS7003;13506;50.852;20.632;2023-07-13T13:27:46;5.20;5.20;2.00
21358;PMS7003;13506;50.852;20.632;2023-07-13T13:30:16;5.00;5.00;2.40
21358;PMS7003;13506;50.852;20.632;2023-07-13T13:32:45;5.00;5.00;3.00
21358;PMS7003;13506;50.852;20.632;2023-07-13T13:35:14;4.20;4.20;2.60
21358;PMS7003;13506;50.852;20.632;2023-07-13T13:37:44;5.40;4.60;2.20
21358;PMS7003;13506;50.852;20.632;2023-07-13T13:40:16;5.40;5.00;2.00
21358;PMS7003;13506;50.852;20.632;2023-07-13T13:42:46;8.20;5.60;3.00
21358;PMS7003;13506;50.852;20.632;2023-07-13T13:45:15;6.60;5.20;2.20
21358;PMS7003;13506;50.852;20.632;2023-07-13T13:47:43;6.40;6.40;3.80
21358;PMS7003;13506;50.852;20.632;2023-07-13T13:50:14;6.80;5.60;3.20
21358;PMS7003;13506;50.852;20.632;2023-07-13T13:52:44;6.40;6.40;3.20
21358;PMS7003;13506;50.852;20.632;2023-07-13T13:55:13;7.40;7.40;3.80
21358;PMS7003;13506;50.852;20.632;2023-07-13T13:57:44;6.20;6.20;3.20
21358;PMS7003;13506;50.852;20.632;2023-07-13T14:00:13;6.00;5.80;2.80
21358;PMS7003;13506;50.852;20.632;2023-07-13T14:02:44;6.60;5.20;2.60
21358;PMS7003;13506;50.852;20.632;2023-07-13T14:05:18;6.40;6.40;3.80
21358;PMS7003;13506;50.852;20.632;2023-07-13T14:07:49;7.40;7.40;4.40
21358;PMS7003;13506;50.852;20.632;2023-07-13T14:10:19;6.00;5.80;3.00
21358;PMS7003;13506;50.852;20.632;2023-07-13T14:12:50;6.60;6.60;3.20
21358;PMS7003;13506;50.852;20.632;2023-07-13T14:15:21;7.60;7.60;4.00